createdAt,value
2023-02-21T00:00:08.317Z,24.13
2023-02-21T00:00:58.852Z,23.40
2023-02-21T00:01:49.716Z,23.43
2023-02-21T00:02:40.584Z,22.97
2023-02-21T00:03:31.302Z,23.93
2023-02-21T00:04:21.759Z,23.17
2023-02-21T00:05:12.405Z,23.73
2023-02-21T00:06:03.283Z,23.40
2023-02-21T00:06:53.927Z,23.17
2023-02-21T00:07:45.491Z,22.77
2023-02-21T00:08:36.087Z,23.90
2023-02-21T00:09:26.801Z,22.80
2023-02-21T00:10:17.389Z,23.07
2023-02-21T00:11:07.906Z,21.90
2023-02-21T00:12:02.552Z,21.93
2023-02-21T00:12:53.335Z,22.60
2023-02-21T00:13:44.456Z,22.57
2023-02-21T00:14:34.936Z,22.77
2023-02-21T00:15:26.734Z,21.17
2023-02-21T00:16:17.365Z,22.33
2023-02-21T00:17:08.187Z,23.00
2023-02-21T00:17:58.793Z,21.93
2023-02-21T00:18:54.023Z,23.73
2023-02-21T00:19:44.451Z,22.43
2023-02-21T00:20:35.443Z,20.37
2023-02-21T00:21:26.641Z,22.20
2023-02-21T00:22:17.208Z,22.37
2023-02-21T00:23:07.947Z,21.10
2023-02-21T00:23:58.458Z,21.20
2023-02-21T00:24:49.257Z,22.33
2023-02-21T00:25:39.768Z,21.50
2023-02-21T00:26:30.386Z,21.80
2023-02-21T00:27:22.026Z,22.17
2023-02-21T00:28:12.680Z,22.40
2023-02-21T00:29:03.643Z,22.80
2023-02-21T00:29:54.234Z,21.57
2023-02-21T00:30:44.916Z,22.30
2023-02-21T00:31:37.930Z,20.60
2023-02-21T00:32:29.060Z,21.60
2023-02-21T00:33:19.910Z,21.03
2023-02-21T00:34:10.824Z,21.40
2023-02-21T00:35:01.975Z,22.10
2023-02-21T00:35:53.023Z,21.90
2023-02-21T00:36:43.566Z,21.80
2023-02-21T00:37:34.146Z,21.73
2023-02-21T00:38:26.594Z,22.47
2023-02-21T00:39:17.586Z,20.87
2023-02-21T00:40:08.126Z,21.40
2023-02-21T00:40:58.774Z,21.87
2023-02-21T00:41:49.684Z,22.33
2023-02-21T00:42:40.136Z,21.47
2023-02-21T00:43:30.688Z,21.73
2023-02-21T00:44:21.298Z,20.73
2023-02-21T00:45:12.093Z,21.37
2023-02-21T00:46:03.330Z,20.97
2023-02-21T00:46:54.206Z,20.17
2023-02-21T00:47:44.886Z,20.80
2023-02-21T00:48:39.587Z,21.27
2023-02-21T00:49:30.655Z,20.83
2023-02-21T00:50:21.296Z,19.77
2023-02-21T00:51:12.315Z,20.00
2023-02-21T00:52:03.283Z,20.63
2023-02-21T00:52:53.876Z,19.30
2023-02-21T00:53:44.462Z,19.20
2023-02-21T00:54:35.328Z,19.03
2023-02-21T00:55:25.947Z,19.67
2023-02-21T00:56:16.398Z,19.63
2023-02-21T00:57:07.285Z,18.53
2023-02-21T00:57:58.145Z,20.40
2023-02-21T00:58:48.935Z,19.27
2023-02-21T00:59:40.075Z,19.47
2023-02-21T01:00:38.327Z,19.60
2023-02-21T01:01:29.448Z,19.43
2023-02-21T01:02:20.533Z,20.40
2023-02-21T01:03:11.428Z,19.07
2023-02-21T01:04:02.172Z,19.67
2023-02-21T01:04:53.292Z,19.17
2023-02-21T01:05:44.210Z,19.23
2023-02-21T01:06:34.829Z,20.23
2023-02-21T01:07:25.843Z,19.27
2023-02-21T01:08:16.992Z,19.37
2023-02-21T01:09:07.667Z,19.70
2023-02-21T01:09:58.100Z,19.57
2023-02-21T01:10:48.665Z,19.57
2023-02-21T01:11:40.770Z,19.93
2023-02-21T01:12:31.422Z,20.57
2023-02-21T01:13:23.507Z,19.47
2023-02-21T01:14:14.089Z,19.50
2023-02-21T01:15:05.134Z,18.83
2023-02-21T01:15:55.979Z,19.80
2023-02-21T01:16:51.307Z,19.27
2023-02-21T01:17:42.023Z,18.43
2023-02-21T01:18:33.053Z,19.23
2023-02-21T01:19:23.802Z,18.60
2023-02-21T01:20:14.620Z,17.77
2023-02-21T01:21:05.536Z,17.60
2023-02-21T01:21:56.113Z,17.30
2023-02-21T01:22:47.112Z,17.53
2023-02-21T01:23:37.608Z,17.53
2023-02-21T01:24:32.193Z,17.23
2023-02-21T01:25:23.825Z,16.80
2023-02-21T01:26:14.769Z,17.83
2023-02-21T01:27:05.931Z,17.20
2023-02-21T01:27:56.655Z,16.20
2023-02-21T01:28:47.676Z,16.83
2023-02-21T01:29:38.892Z,16.77
2023-02-21T01:30:30.444Z,16.97
2023-02-21T01:31:21.386Z,17.03
2023-02-21T01:32:12.199Z,16.87
2023-02-21T01:33:02.843Z,15.80
2023-02-21T01:33:59.438Z,17.10
2023-02-21T01:34:50.054Z,16.10
2023-02-21T01:35:40.751Z,16.07
2023-02-21T01:36:31.346Z,16.23
2023-02-21T01:37:21.920Z,16.53
2023-02-21T01:38:12.523Z,16.13
2023-02-21T01:39:03.336Z,16.13
2023-02-21T01:39:54.131Z,16.30
2023-02-21T01:40:45.455Z,15.83
2023-02-21T01:41:36.001Z,15.50
2023-02-21T01:42:28.729Z,16.10
2023-02-21T01:43:19.262Z,16.53
2023-02-21T01:44:21.052Z,16.30
2023-02-21T01:45:41.061Z,16.80
2023-02-21T01:46:34.945Z,15.57
2023-02-21T01:47:30.437Z,16.27
2023-02-21T01:48:21.533Z,16.20
2023-02-21T01:49:14.106Z,16.40
2023-02-21T01:50:05.220Z,16.67
2023-02-21T01:50:55.807Z,16.07
2023-02-21T01:51:52.686Z,14.97
2023-02-21T01:52:44.237Z,15.73
2023-02-21T01:53:42.527Z,15.60
2023-02-21T01:54:35.103Z,15.90
2023-02-21T01:55:27.539Z,14.33
2023-02-21T01:56:19.941Z,15.17
2023-02-21T01:57:11.917Z,15.77
2023-02-21T01:58:04.814Z,16.10
2023-02-21T01:58:55.723Z,16.07
2023-02-21T01:59:47.104Z,16.07
2023-02-21T02:00:37.994Z,15.73
2023-02-21T02:01:34.965Z,15.80
2023-02-21T02:02:39.300Z,16.37
2023-02-21T02:03:33.637Z,16.17
2023-02-21T02:04:24.917Z,16.50
2023-02-21T02:05:16.751Z,16.87
2023-02-21T02:06:12.553Z,16.23
2023-02-21T02:07:03.193Z,17.80
2023-02-21T02:07:55.663Z,17.00
2023-02-21T02:08:50.255Z,17.30
2023-02-21T02:09:41.429Z,17.10
2023-02-21T02:10:33.051Z,17.10
2023-02-21T02:11:50.110Z,18.07
2023-02-21T02:12:52.583Z,17.30
2023-02-21T02:14:09.585Z,18.00
2023-02-21T02:15:00.022Z,17.93
2023-02-21T02:15:56.712Z,16.83
2023-02-21T02:16:49.748Z,17.07
2023-02-21T02:17:36.907Z,16.93
2023-02-21T02:18:12.113Z,16.73
2023-02-21T02:19:00.557Z,17.27
2023-02-21T02:20:09.412Z,17.03
2023-02-21T02:21:19.807Z,17.00
2023-02-21T02:22:09.004Z,16.77
2023-02-21T02:22:53.428Z,17.77
2023-02-21T02:24:06.185Z,17.83
2023-02-21T02:25:06.209Z,16.93
2023-02-21T02:25:59.819Z,16.23
2023-02-21T02:27:05.887Z,16.57
2023-02-21T02:28:03.231Z,15.60
2023-02-21T02:28:59.892Z,17.40
2023-02-21T02:30:02.879Z,16.13
2023-02-21T02:31:09.461Z,17.50
2023-02-21T02:32:20.411Z,16.13
2023-02-21T02:33:25.433Z,16.90
2023-02-21T02:34:35.481Z,16.77
2023-02-21T02:35:20.220Z,15.97
2023-02-21T02:36:06.596Z,17.27
2023-02-21T02:36:53.310Z,16.60
2023-02-21T02:37:34.399Z,16.53
2023-02-21T02:38:30.553Z,16.50
2023-02-21T02:39:19.690Z,17.43
2023-02-21T02:40:08.985Z,16.07
2023-02-21T02:40:59.514Z,16.43
2023-02-21T02:41:49.743Z,16.37
2023-02-21T02:42:32.162Z,15.57
2023-02-21T02:43:16.939Z,16.57
2023-02-21T02:44:06.468Z,17.37
2023-02-21T02:44:41.424Z,16.37
2023-02-21T02:45:32.323Z,16.13
2023-02-21T02:46:14.065Z,16.43
2023-02-21T02:46:49.905Z,16.07
2023-02-21T02:47:34.195Z,16.27
2023-02-21T02:48:16.530Z,16.03
2023-02-21T02:49:14.495Z,15.70
2023-02-21T02:49:49.289Z,15.97
2023-02-21T02:50:24.167Z,16.43
2023-02-21T02:51:00.694Z,15.73
2023-02-21T02:51:35.108Z,15.77
2023-02-21T02:52:09.556Z,15.47
2023-02-21T02:52:55.808Z,15.17
2023-02-21T02:53:30.093Z,15.67
2023-02-21T02:54:03.569Z,15.33
2023-02-21T02:54:40.109Z,14.43
2023-02-21T02:55:48.212Z,15.50
2023-02-21T02:56:23.748Z,15.30
2023-02-21T02:56:56.043Z,15.50
2023-02-21T02:57:40.606Z,15.90
2023-02-21T02:58:12.912Z,15.10
2023-02-21T02:58:58.062Z,13.93
2023-02-21T02:59:33.496Z,15.33
2023-02-21T03:00:08.074Z,15.27
2023-02-21T03:00:48.489Z,14.97
2023-02-21T03:01:57.405Z,15.50
2023-02-21T03:03:09.842Z,15.37
2023-02-21T03:03:56.509Z,14.77
2023-02-21T03:04:50.565Z,15.43
2023-02-21T03:05:43.849Z,15.33
2023-02-21T03:06:49.447Z,15.33
2023-02-21T03:07:39.622Z,15.13
2023-02-21T03:08:17.492Z,15.83
2023-02-21T03:09:14.069Z,15.93
2023-02-21T03:10:18.502Z,14.47
2023-02-21T03:11:15.760Z,15.10
2023-02-21T03:12:08.519Z,14.30
2023-02-21T03:13:02.545Z,14.17
2023-02-21T03:13:53.589Z,14.10
2023-02-21T03:14:35.094Z,13.43
2023-02-21T03:15:22.697Z,13.83
2023-02-21T03:16:10.163Z,12.93
2023-02-21T03:16:54.454Z,13.70
2023-02-21T03:17:32.586Z,13.47
2023-02-21T03:18:20.555Z,12.93
2023-02-21T03:19:03.952Z,12.63
2023-02-21T03:19:40.223Z,12.43
2023-02-21T03:20:15.444Z,13.07
2023-02-21T03:20:54.986Z,13.33
2023-02-21T03:21:36.110Z,13.23
2023-02-21T03:22:13.401Z,12.83
2023-02-21T03:22:48.098Z,12.43
2023-02-21T03:23:23.332Z,12.53
2023-02-21T03:24:00.360Z,12.97
2023-02-21T03:24:35.547Z,12.87
2023-02-21T03:25:08.601Z,12.37
2023-02-21T03:25:42.528Z,12.03
2023-02-21T03:26:17.328Z,12.73
2023-02-21T03:26:54.290Z,12.50
2023-02-21T03:27:28.275Z,12.53
2023-02-21T03:28:02.109Z,11.83
2023-02-21T03:28:37.362Z,12.10
2023-02-21T03:29:11.195Z,12.17
2023-02-21T03:29:45.133Z,11.50
2023-02-21T03:30:19.836Z,12.23
2023-02-21T03:30:55.422Z,12.57
2023-02-21T03:31:36.141Z,12.47
2023-02-21T03:32:22.065Z,12.37
2023-02-21T03:32:55.733Z,11.63
2023-02-21T03:33:28.536Z,11.67
2023-02-21T03:34:00.889Z,11.43
2023-02-21T03:34:33.187Z,11.50
2023-02-21T03:35:06.779Z,11.37
2023-02-21T03:35:39.288Z,10.20
2023-02-21T03:36:12.478Z,11.13
2023-02-21T03:36:45.600Z,10.83
2023-02-21T03:37:28.605Z,10.90
2023-02-21T03:38:00.891Z,10.87
2023-02-21T03:38:33.264Z,11.10
2023-02-21T03:39:05.633Z,11.30
2023-02-21T03:39:37.995Z,10.43
2023-02-21T03:40:23.779Z,10.37
2023-02-21T03:40:56.356Z,10.50
2023-02-21T03:41:28.628Z,10.23
2023-02-21T03:42:00.947Z,10.17
2023-02-21T03:42:33.222Z,10.07
2023-02-21T03:43:09.564Z,10.07
2023-02-21T03:43:41.900Z,10.60
2023-02-21T03:44:14.812Z,9.43
2023-02-21T03:44:47.094Z,9.53
2023-02-21T03:45:19.862Z,10.23
2023-02-21T03:45:52.163Z,10.00
2023-02-21T03:46:24.534Z,9.90
2023-02-21T03:46:56.884Z,8.97
2023-02-21T03:47:29.207Z,10.03
2023-02-21T03:48:01.764Z,9.73
2023-02-21T03:48:34.080Z,9.23
2023-02-21T03:49:06.446Z,9.33
2023-02-21T03:49:38.723Z,9.70
2023-02-21T03:50:11.014Z,9.50
2023-02-21T03:50:43.303Z,9.17
2023-02-21T03:51:15.851Z,8.93
2023-02-21T03:51:48.493Z,8.83
2023-02-21T03:52:20.826Z,9.37
2023-02-21T03:52:53.102Z,8.87
2023-02-21T03:53:25.465Z,8.87
2023-02-21T03:53:57.859Z,8.23
2023-02-21T03:54:30.163Z,8.53
2023-02-21T03:55:02.456Z,8.20
2023-02-21T03:55:34.752Z,8.07
2023-02-21T03:56:07.192Z,7.47
2023-02-21T03:56:42.125Z,8.27
2023-02-21T03:57:14.769Z,8.13
2023-02-21T03:57:47.481Z,7.93
2023-02-21T03:58:19.771Z,7.57
2023-02-21T03:58:52.072Z,7.13
2023-02-21T03:59:24.493Z,8.40
2023-02-21T03:59:56.855Z,7.73
2023-02-21T04:00:29.196Z,7.43
2023-02-21T04:01:01.638Z,7.40
2023-02-21T04:01:33.949Z,7.40
2023-02-21T04:02:06.875Z,7.77
2023-02-21T04:02:39.339Z,8.23
2023-02-21T04:03:11.623Z,8.00
2023-02-21T04:03:43.894Z,7.73
2023-02-21T04:04:16.153Z,7.40
2023-02-21T04:04:48.794Z,7.27
2023-02-21T04:05:21.057Z,7.63
2023-02-21T04:05:53.360Z,7.40
2023-02-21T04:06:25.761Z,7.50
2023-02-21T04:06:58.216Z,7.17
2023-02-21T04:07:30.500Z,6.87
2023-02-21T04:08:03.530Z,7.40
2023-02-21T04:08:35.831Z,7.43
2023-02-21T04:09:08.092Z,7.33
2023-02-21T04:09:40.418Z,7.03
2023-02-21T04:10:14.365Z,7.43
2023-02-21T04:10:52.007Z,6.17
2023-02-21T04:11:24.906Z,7.27
2023-02-21T04:11:57.343Z,7.63
2023-02-21T04:12:29.657Z,7.47
2023-02-21T04:13:02.003Z,7.33
2023-02-21T04:13:34.478Z,7.30
2023-02-21T04:14:06.752Z,7.10
2023-02-21T04:14:39.254Z,7.30
2023-02-21T04:15:12.313Z,7.30
2023-02-21T04:15:44.590Z,6.47
2023-02-21T04:16:16.941Z,6.60
2023-02-21T04:16:49.239Z,6.47
2023-02-21T04:17:21.495Z,6.77
2023-02-21T04:17:53.848Z,6.30
2023-02-21T04:18:26.131Z,7.70
2023-02-21T04:18:58.613Z,7.23
2023-02-21T04:19:31.237Z,6.60
2023-02-21T04:20:04.265Z,5.83
2023-02-21T04:20:36.530Z,6.73
2023-02-21T04:21:08.848Z,6.67
2023-02-21T04:21:41.337Z,6.33
2023-02-21T04:22:13.674Z,6.77
2023-02-21T04:22:51.816Z,5.83
2023-02-21T04:23:30.288Z,6.17
2023-02-21T04:24:02.636Z,5.73
2023-02-21T04:24:34.908Z,6.37
2023-02-21T04:25:08.057Z,6.47
2023-02-21T04:25:40.608Z,6.33
2023-02-21T04:26:13.169Z,6.60
2023-02-21T04:26:45.473Z,6.70
2023-02-21T04:27:17.779Z,5.97
2023-02-21T04:27:50.399Z,6.43
2023-02-21T04:28:22.692Z,6.07
2023-02-21T04:28:54.985Z,6.27
2023-02-21T04:29:27.303Z,5.73
2023-02-21T04:29:59.557Z,6.50
2023-02-21T04:30:32.022Z,6.77
2023-02-21T04:31:04.449Z,6.77
2023-02-21T04:31:36.924Z,6.13
2023-02-21T04:32:11.200Z,6.43
2023-02-21T04:32:43.570Z,6.03
2023-02-21T04:33:15.894Z,6.13
2023-02-21T04:33:49.369Z,6.00
2023-02-21T04:34:21.900Z,6.83
2023-02-21T04:34:54.245Z,6.50
2023-02-21T04:35:26.560Z,6.37
2023-02-21T04:35:58.930Z,6.47
2023-02-21T04:36:31.566Z,5.93
2023-02-21T04:37:03.945Z,6.30
2023-02-21T04:37:36.196Z,6.20
2023-02-21T04:38:08.485Z,6.53
2023-02-21T04:38:40.836Z,6.47
2023-02-21T04:39:13.684Z,6.00
2023-02-21T04:39:45.987Z,5.67
2023-02-21T04:40:18.474Z,6.17
2023-02-21T04:40:50.771Z,5.97
2023-02-21T04:41:23.644Z,5.70
2023-02-21T04:41:55.931Z,5.53
2023-02-21T04:42:28.224Z,5.70
2023-02-21T04:43:00.484Z,6.73
2023-02-21T04:43:33.086Z,6.53
2023-02-21T04:44:06.350Z,5.93
2023-02-21T04:44:40.142Z,5.70
2023-02-21T04:45:12.724Z,6.37
2023-02-21T04:45:45.074Z,6.53
2023-02-21T04:46:18.527Z,6.57
2023-02-21T04:46:50.768Z,6.63
2023-02-21T04:47:23.068Z,6.43
2023-02-21T04:47:55.367Z,5.70
2023-02-21T04:48:27.976Z,5.87
2023-02-21T04:49:00.285Z,5.83
2023-02-21T04:49:32.649Z,7.67
2023-02-21T04:50:06.292Z,10.90
2023-02-21T04:50:38.600Z,6.97
2023-02-21T04:51:15.601Z,6.43
2023-02-21T04:51:48.015Z,6.00
2023-02-21T04:52:20.636Z,5.37
2023-02-21T04:52:52.897Z,5.77
2023-02-21T04:53:25.325Z,6.93
2023-02-21T04:53:57.593Z,5.83
2023-02-21T04:54:29.939Z,5.67
2023-02-21T04:55:02.267Z,5.67
2023-02-21T04:55:34.537Z,5.63
2023-02-21T04:56:07.155Z,5.57
2023-02-21T04:56:39.830Z,5.27
2023-02-21T04:57:12.314Z,5.03
2023-02-21T04:57:44.618Z,4.77
2023-02-21T04:58:17.104Z,4.40
2023-02-21T04:58:49.734Z,4.63
2023-02-21T04:59:22.069Z,7.67
2023-02-21T05:00:00.905Z,10.60
2023-02-21T05:00:33.236Z,5.63
2023-02-21T05:01:05.685Z,4.70
2023-02-21T05:01:38.032Z,4.90
2023-02-21T05:02:10.442Z,4.50
2023-02-21T05:02:44.056Z,4.43
2023-02-21T05:03:16.562Z,5.70
2023-02-21T05:03:49.024Z,12.80
2023-02-21T05:04:21.366Z,8.23
2023-02-21T05:04:54.137Z,4.87
2023-02-21T05:05:26.678Z,4.43
2023-02-21T05:05:59.026Z,3.87
2023-02-21T05:06:32.371Z,4.03
2023-02-21T05:07:05.633Z,3.97
2023-02-21T05:07:37.964Z,3.77
2023-02-21T05:08:10.303Z,4.47
2023-02-21T05:08:42.772Z,4.40
2023-02-21T05:09:15.047Z,4.27
2023-02-21T05:09:47.307Z,4.63
2023-02-21T05:10:19.685Z,4.87
2023-02-21T05:10:52.064Z,4.63
2023-02-21T05:11:25.008Z,4.27
2023-02-21T05:11:57.429Z,4.50
2023-02-21T05:12:29.739Z,4.83
2023-02-21T05:13:02.066Z,5.97
2023-02-21T05:13:34.386Z,5.50
2023-02-21T05:14:06.894Z,5.83
2023-02-21T05:14:39.669Z,6.03
2023-02-21T05:15:13.589Z,5.70
2023-02-21T05:15:45.858Z,6.17
2023-02-21T05:16:20.229Z,6.10
2023-02-21T05:16:53.321Z,6.10
2023-02-21T05:17:25.720Z,6.87
2023-02-21T05:17:57.990Z,8.77
2023-02-21T05:18:30.354Z,9.43
2023-02-21T05:19:02.887Z,21.63
2023-02-21T05:19:35.251Z,28.10
2023-02-21T05:20:11.781Z,24.90
2023-02-21T05:20:44.157Z,12.10
2023-02-21T05:21:18.317Z,7.33
2023-02-21T05:21:50.584Z,6.47
2023-02-21T05:22:23.250Z,5.63
2023-02-21T05:22:57.670Z,5.97
2023-02-21T05:23:35.170Z,7.87
2023-02-21T05:24:08.027Z,14.33
2023-02-21T05:24:43.028Z,9.20
2023-02-21T05:25:17.523Z,6.97
2023-02-21T05:25:49.790Z,7.53
2023-02-21T05:26:25.496Z,6.50
2023-02-21T05:26:58.774Z,8.20
2023-02-21T05:27:31.060Z,8.27
2023-02-21T05:28:03.383Z,5.90
2023-02-21T05:28:37.082Z,5.93
2023-02-21T05:29:09.350Z,6.17
2023-02-21T05:29:53.282Z,5.37
2023-02-21T05:30:25.826Z,5.03
2023-02-21T05:31:00.747Z,5.03
2023-02-21T05:31:33.766Z,4.57
2023-02-21T05:32:06.100Z,4.20
2023-02-21T05:32:38.403Z,4.17
2023-02-21T05:33:10.668Z,4.67
2023-02-21T05:33:42.989Z,4.73
2023-02-21T05:34:17.626Z,4.43
2023-02-21T05:34:50.120Z,4.33
2023-02-21T05:35:22.500Z,4.93
2023-02-21T05:35:56.641Z,4.50
2023-02-21T05:36:28.999Z,4.40
2023-02-21T05:37:01.586Z,4.53
2023-02-21T05:37:33.933Z,4.90
2023-02-21T05:38:06.276Z,4.73
2023-02-21T05:38:50.816Z,4.50
2023-02-21T05:39:23.249Z,4.80
2023-02-21T05:39:55.721Z,4.80
2023-02-21T05:40:28.104Z,4.50
2023-02-21T05:41:00.948Z,4.73
2023-02-21T05:41:33.992Z,4.87
2023-02-21T05:42:06.431Z,5.13
2023-02-21T05:42:38.860Z,5.33
2023-02-21T05:43:11.656Z,5.50
2023-02-21T05:43:46.082Z,5.43
2023-02-21T05:44:18.701Z,6.60
2023-02-21T05:44:51.031Z,7.00
2023-02-21T05:45:23.340Z,8.17
2023-02-21T05:45:55.729Z,8.93
2023-02-21T05:46:30.747Z,10.00
2023-02-21T05:47:03.280Z,10.37
2023-02-21T05:47:35.792Z,8.87
2023-02-21T05:48:08.607Z,10.77
2023-02-21T05:48:40.931Z,17.03
2023-02-21T05:49:13.402Z,19.73
2023-02-21T05:49:45.873Z,19.93
2023-02-21T05:50:18.343Z,16.73
2023-02-21T05:50:50.630Z,12.33
2023-02-21T05:51:23.474Z,9.63
2023-02-21T05:51:55.804Z,9.47
2023-02-21T05:52:28.963Z,9.73
2023-02-21T05:53:01.779Z,7.73
2023-02-21T05:53:34.099Z,5.37
2023-02-21T05:54:09.508Z,5.77
2023-02-21T05:54:41.924Z,5.90
2023-02-21T05:55:14.259Z,6.27
2023-02-21T05:55:46.838Z,7.30
2023-02-21T05:56:21.223Z,11.37
2023-02-21T05:56:53.556Z,13.53
2023-02-21T05:57:25.818Z,11.93
2023-02-21T05:57:58.116Z,8.27
2023-02-21T05:58:30.696Z,6.03
2023-02-21T05:59:02.980Z,5.57
2023-02-21T05:59:35.359Z,5.10
2023-02-21T06:00:13.499Z,4.43
2023-02-21T06:00:45.787Z,4.97
2023-02-21T06:01:18.227Z,5.20
2023-02-21T06:01:51.060Z,4.30
2023-02-21T06:02:23.408Z,3.97
2023-02-21T06:02:56.841Z,3.83
2023-02-21T06:03:29.331Z,3.57
2023-02-21T06:04:01.614Z,3.53
2023-02-21T06:04:33.910Z,3.70
2023-02-21T06:05:06.590Z,3.63
2023-02-21T06:05:38.831Z,3.70
2023-02-21T06:06:11.223Z,3.50
2023-02-21T06:06:44.393Z,3.83
2023-02-21T06:07:16.839Z,4.03
2023-02-21T06:07:49.275Z,3.97
2023-02-21T06:08:21.825Z,3.57
2023-02-21T06:08:54.374Z,3.60
2023-02-21T06:09:26.685Z,3.53
2023-02-21T06:09:58.982Z,3.90
2023-02-21T06:10:31.284Z,3.83
2023-02-21T06:11:03.564Z,4.33
2023-02-21T06:11:38.496Z,4.47
2023-02-21T06:12:10.847Z,4.83
2023-02-21T06:12:44.310Z,4.77
2023-02-21T06:13:16.654Z,3.93
2023-02-21T06:13:51.546Z,4.73
2023-02-21T06:14:25.912Z,4.43
2023-02-21T06:14:58.194Z,4.17
2023-02-21T06:15:30.452Z,4.20
2023-02-21T06:16:02.779Z,3.97
2023-02-21T06:16:37.731Z,4.27
2023-02-21T06:17:10.187Z,3.57
2023-02-21T06:17:43.458Z,3.50
2023-02-21T06:18:16.924Z,3.53
2023-02-21T06:18:56.898Z,3.93
2023-02-21T06:19:29.209Z,4.03
2023-02-21T06:20:01.515Z,4.23
2023-02-21T06:20:33.760Z,3.87
2023-02-21T06:21:06.091Z,4.13
2023-02-21T06:21:40.297Z,4.70
2023-02-21T06:22:12.619Z,5.20
2023-02-21T06:22:44.918Z,4.97
2023-02-21T06:23:17.196Z,6.80
2023-02-21T06:23:49.917Z,8.00
2023-02-21T06:24:22.232Z,6.10
2023-02-21T06:24:54.612Z,4.40
2023-02-21T06:25:26.891Z,4.73
2023-02-21T06:25:59.573Z,4.70
2023-02-21T06:26:31.994Z,3.80
2023-02-21T06:27:04.313Z,3.70
2023-02-21T06:27:37.354Z,3.73
2023-02-21T06:28:09.701Z,4.57
2023-02-21T06:28:42.104Z,4.33
2023-02-21T06:29:14.452Z,6.83
2023-02-21T06:29:46.798Z,7.00
2023-02-21T06:30:19.927Z,4.73
2023-02-21T06:30:53.045Z,4.30
2023-02-21T06:31:25.700Z,4.47
2023-02-21T06:31:59.708Z,4.57
2023-02-21T06:32:34.877Z,4.80
2023-02-21T06:33:07.155Z,5.00
2023-02-21T06:33:39.540Z,5.33
2023-02-21T06:34:11.905Z,15.13
2023-02-21T06:34:44.766Z,11.43
2023-02-21T06:35:17.184Z,5.47
2023-02-21T06:35:49.564Z,4.37
2023-02-21T06:36:25.330Z,4.37
2023-02-21T06:36:57.661Z,5.07
2023-02-21T06:37:29.947Z,5.87
2023-02-21T06:38:02.240Z,6.10
2023-02-21T06:38:35.091Z,6.27
2023-02-21T06:39:08.191Z,5.67
2023-02-21T06:39:40.566Z,5.00
2023-02-21T06:40:12.976Z,4.33
2023-02-21T06:40:45.289Z,4.33
2023-02-21T06:41:20.075Z,4.23
2023-02-21T06:41:53.309Z,4.17
2023-02-21T06:42:25.616Z,4.77
2023-02-21T06:42:57.877Z,4.73
2023-02-21T06:43:30.207Z,4.53
2023-02-21T06:44:02.568Z,5.13
2023-02-21T06:44:34.834Z,19.20
2023-02-21T06:45:07.666Z,9.53
2023-02-21T06:45:40.043Z,12.40
2023-02-21T06:46:17.570Z,20.87
2023-02-21T06:46:50.618Z,19.80
2023-02-21T06:47:22.983Z,17.43
2023-02-21T06:47:55.300Z,12.87
2023-02-21T06:48:27.656Z,9.80
2023-02-21T06:48:59.956Z,8.40
2023-02-21T06:49:32.309Z,8.60
2023-02-21T06:50:05.168Z,8.87
2023-02-21T06:50:37.452Z,9.93
2023-02-21T06:51:14.717Z,12.43
2023-02-21T06:51:47.449Z,10.13
2023-02-21T06:52:19.786Z,9.13
2023-02-21T06:52:52.460Z,10.17
2023-02-21T06:53:45.251Z,8.93
2023-02-21T06:54:38.327Z,13.00
2023-02-21T06:55:10.583Z,7.97
2023-02-21T06:55:42.940Z,6.23
2023-02-21T06:56:15.251Z,6.53
2023-02-21T06:56:47.626Z,5.87
2023-02-21T06:57:20.147Z,5.00
2023-02-21T06:57:52.711Z,7.10
2023-02-21T06:58:24.981Z,8.93
2023-02-21T06:58:57.963Z,7.40
2023-02-21T06:59:30.288Z,6.00
2023-02-21T07:00:04.153Z,6.30
2023-02-21T07:00:36.538Z,6.77
2023-02-21T07:01:08.911Z,8.90
2023-02-21T07:01:41.301Z,8.60
2023-02-21T07:02:19.222Z,8.63
2023-02-21T07:02:51.634Z,8.20
2023-02-21T07:03:24.394Z,6.90
2023-02-21T07:03:58.556Z,9.13
2023-02-21T07:04:31.249Z,10.57
2023-02-21T07:05:03.620Z,10.23
2023-02-21T07:05:37.764Z,9.13
2023-02-21T07:06:10.412Z,9.87
2023-02-21T07:06:42.677Z,11.10
2023-02-21T07:07:15.776Z,13.27
2023-02-21T07:07:48.218Z,15.83
2023-02-21T07:08:20.725Z,45.90
2023-02-21T07:08:53.110Z,22.00
2023-02-21T07:09:25.478Z,20.37
2023-02-21T07:09:57.754Z,18.50
2023-02-21T07:10:31.613Z,17.67
2023-02-21T07:11:05.886Z,21.63
2023-02-21T07:11:38.289Z,22.70
2023-02-21T07:12:10.706Z,16.60
2023-02-21T07:12:43.090Z,12.27
2023-02-21T07:13:15.376Z,12.33
2023-02-21T07:13:50.914Z,11.97
2023-02-21T07:14:23.199Z,14.30
2023-02-21T07:14:55.559Z,15.37
2023-02-21T07:15:28.664Z,13.53
2023-02-21T07:16:02.121Z,13.63
2023-02-21T07:16:34.526Z,16.87
2023-02-21T07:17:07.014Z,14.70
2023-02-21T07:17:39.346Z,14.53
2023-02-21T07:18:11.660Z,18.60
2023-02-21T07:18:45.175Z,19.47
2023-02-21T07:19:48.803Z,20.73
2023-02-21T07:20:21.143Z,16.57
2023-02-21T07:20:53.608Z,12.67
2023-02-21T07:21:27.544Z,11.17
2023-02-21T07:21:59.853Z,13.13
2023-02-21T07:22:32.138Z,11.73
2023-02-21T07:23:04.476Z,10.30
2023-02-21T07:23:36.787Z,10.80
2023-02-21T07:24:09.134Z,11.70
2023-02-21T07:24:41.785Z,11.13
2023-02-21T07:25:19.416Z,14.87
2023-02-21T07:25:52.054Z,15.77
2023-02-21T07:26:24.484Z,13.00
2023-02-21T07:26:57.278Z,10.83
2023-02-21T07:27:29.833Z,8.13
2023-02-21T07:28:04.516Z,10.23
2023-02-21T07:28:37.764Z,8.17
2023-02-21T07:29:10.348Z,10.40
2023-02-21T07:29:42.826Z,9.07
2023-02-21T07:30:17.322Z,8.17
2023-02-21T07:30:50.082Z,8.13
2023-02-21T07:31:23.277Z,8.50
2023-02-21T07:31:57.309Z,9.00
2023-02-21T07:32:33.833Z,9.03
2023-02-21T07:33:06.659Z,11.37
2023-02-21T07:33:44.576Z,10.47
2023-02-21T07:34:24.805Z,9.20
2023-02-21T07:34:58.136Z,8.20
2023-02-21T07:35:31.038Z,8.93
2023-02-21T07:36:03.833Z,9.77
2023-02-21T07:36:39.981Z,10.00
2023-02-21T07:37:17.809Z,10.80
2023-02-21T07:37:53.079Z,10.93
2023-02-21T07:38:32.835Z,11.97
2023-02-21T07:39:10.695Z,10.07
2023-02-21T07:39:43.330Z,9.10
2023-02-21T07:40:16.699Z,6.67
2023-02-21T07:42:47.832Z,3.57
2023-02-21T07:43:20.598Z,4.37
2023-02-21T07:43:53.533Z,4.27
2023-02-21T07:44:25.989Z,4.97
2023-02-21T07:45:00.645Z,10.33
2023-02-21T07:45:35.973Z,10.23
2023-02-21T07:47:55.222Z,5.33
2023-02-21T07:50:35.702Z,4.10
2023-02-21T07:51:19.961Z,5.37
2023-02-21T07:51:59.427Z,4.67
2023-02-21T07:52:52.378Z,3.37
2023-02-21T08:38:50.153Z,8.53
2023-02-21T08:39:22.514Z,10.37
2023-02-21T08:39:55.139Z,12.67
2023-02-21T08:40:27.524Z,8.57
2023-02-21T08:41:10.755Z,5.77
2023-02-21T08:41:54.826Z,5.37
2023-02-21T08:42:30.921Z,4.60
2023-02-21T08:43:07.656Z,5.93
2023-02-21T08:44:05.037Z,4.90
2023-02-21T08:44:37.468Z,3.43
2023-02-21T08:45:21.365Z,4.87
2023-02-21T08:45:53.688Z,7.63
2023-02-21T08:46:26.037Z,6.77
2023-02-21T08:46:58.397Z,5.00
2023-02-21T08:47:30.805Z,5.80
2023-02-21T08:48:03.824Z,7.87
2023-02-21T08:48:36.519Z,8.67
2023-02-21T08:49:10.231Z,9.73
2023-02-21T08:49:47.657Z,8.80
2023-02-21T08:50:22.068Z,7.27
2023-02-21T08:50:54.360Z,7.10
2023-02-21T08:51:30.499Z,4.13
2023-02-21T08:52:02.972Z,5.47
2023-02-21T08:52:39.375Z,6.37
2023-02-21T08:53:16.374Z,8.30
2023-02-21T08:53:48.844Z,7.60
2023-02-21T08:54:22.082Z,10.37
2023-02-21T08:54:54.403Z,10.70
2023-02-21T08:55:27.107Z,8.70
2023-02-21T08:55:59.508Z,9.43
2023-02-21T08:56:32.367Z,11.20
2023-02-21T08:57:08.102Z,10.03
2023-02-21T08:57:40.478Z,11.40
2023-02-21T08:58:13.797Z,11.30
2023-02-21T08:58:47.312Z,8.37
2023-02-21T08:59:19.709Z,6.97
2023-02-21T08:59:52.667Z,7.93
2023-02-21T09:00:28.481Z,7.37
2023-02-21T09:01:01.794Z,6.80
2023-02-21T09:01:35.744Z,7.17
2023-02-21T09:02:16.155Z,6.63
2023-02-21T09:02:49.717Z,7.70
2023-02-21T09:03:22.210Z,8.03
2023-02-21T09:03:55.016Z,7.40
2023-02-21T09:04:28.626Z,4.17
2023-02-21T09:05:00.971Z,6.67
2023-02-21T09:05:34.136Z,9.80
2023-02-21T09:06:09.937Z,9.97
2023-02-21T09:06:42.294Z,9.40
2023-02-21T09:07:16.811Z,7.70
2023-02-21T09:07:49.707Z,5.73
2023-02-21T09:08:24.585Z,4.37
2023-02-21T09:09:06.141Z,9.83
2023-02-21T09:09:39.231Z,9.80
2023-02-21T09:10:12.159Z,5.87
2023-02-21T09:10:47.719Z,5.37
2023-02-21T09:11:20.556Z,10.70
2023-02-21T09:11:52.849Z,12.87
2023-02-21T09:12:25.162Z,9.70
2023-02-21T09:12:57.562Z,9.57
2023-02-21T09:13:31.080Z,9.47
2023-02-21T09:14:08.824Z,7.23
2023-02-21T09:14:43.563Z,5.10
2023-02-21T09:15:17.123Z,3.27
2023-02-21T09:15:50.852Z,3.17
2023-02-21T09:16:23.656Z,3.97
2023-02-21T09:16:56.128Z,3.87
2023-02-21T09:17:28.627Z,16.20
2023-02-21T09:18:01.085Z,8.73
2023-02-21T09:18:33.836Z,7.57
2023-02-21T09:19:06.939Z,8.50
2023-02-21T09:19:39.564Z,3.97